sensor_id;sensor_type;location;lat;lon;timestamp;temperature;humidity
3996;DHT22;2012;49.794;9.722;2022-11-20T00:01:26;3.00;99.90
3996;DHT22;2012;49.794;9.722;2022-11-20T00:03:55;3.10;99.90
3996;DHT22;2012;49.794;9.722;2022-11-20T00:06:23;3.20;99.90
3996;DHT22;2012;49.794;9.722;2022-11-20T00:08:50;3.20;99.90
3996;DHT22;2012;49.794;9.722;2022-11-20T00:11:19;3.10;99.90
3996;DHT22;2012;49.794;9.722;2022-11-20T00:13:48;3.10;99.90
3996;DHT22;2012;49.794;9.722;2022-11-20T00:16:17;3.10;99.90
3996;DHT22;2012;49.794;9.722;2022-11-20T00:18:45;3.10;99.90
3996;DHT22;2012;49.794;9.722;2022-11-20T00:21:13;3.10;99.90
3996;DHT22;2012;49.794;9.722;2022-11-20T00:23:41;3.00;99.90
3996;DHT22;2012;49.794;9.722;2022-11-20T00:26:10;3.10;99.90
3996;DHT22;2012;49.794;9.722;2022-11-20T00:28:37;3.20;99.90
3996;DHT22;2012;49.794;9.722;2022-11-20T00:31:13;3.20;99.90
3996;DHT22;2012;49.794;9.722;2022-11-20T00:33:40;3.20;99.90
3996;DHT22;2012;49.794;9.722;2022-11-20T00:36:13;3.10;99.90
3996;DHT22;2012;49.794;9.722;2022-11-20T00:38:40;3.10;99.90
3996;DHT22;2012;49.794;9.722;2022-11-20T00:41:08;3.10;99.90
3996;DHT22;2012;49.794;9.722;2022-11-20T00:43:36;3.10;99.90
3996;DHT22;2012;49.794;9.722;2022-11-20T00:46:09;3.10;99.90
3996;DHT22;2012;49.794;9.722;2022-11-20T00:48:36;3.10;99.90
3996;DHT22;2012;49.794;9.722;2022-11-20T00:51:04;3.10;99.90
3996;DHT22;2012;49.794;9.722;2022-11-20T00:53:31;3.20;99.90
3996;DHT22;2012;49.794;9.722;2022-11-20T00:56:00;3.10;99.90
3996;DHT22;2012;49.794;9.722;2022-11-20T00:58:32;3.10;99.90
3996;DHT22;2012;49.794;9.722;2022-11-20T01:01:08;3.10;99.90
3996;DHT22;2012;49.794;9.722;2022-11-20T01:03:37;3.20;99.90
3996;DHT22;2012;49.794;9.722;2022-11-20T01:06:06;3.10;99.90
3996;DHT22;2012;49.794;9.722;2022-11-20T01:08:35;3.20;99.90
3996;DHT22;2012;49.794;9.722;2022-11-20T01:11:13;3.20;99.90
3996;DHT22;2012;49.794;9.722;2022-11-20T01:13:41;3.20;99.90
3996;DHT22;2012;49.794;9.722;2022-11-20T01:16:10;3.10;99.90
3996;DHT22;2012;49.794;9.722;2022-11-20T01:18:39;3.20;99.90
3996;DHT22;2012;49.794;9.722;2022-11-20T01:21:08;3.20;99.90
3996;DHT22;2012;49.794;9.722;2022-11-20T01:23:37;3.20;99.90
3996;DHT22;2012;49.794;9.722;2022-11-20T01:26:09;3.10;99.90
3996;DHT22;2012;49.794;9.722;2022-11-20T01:28:38;3.20;99.90
3996;DHT22;2012;49.794;9.722;2022-11-20T01:31:19;3.10;99.90
3996;DHT22;2012;49.794;9.722;2022-11-20T01:33:48;3.00;99.90
3996;DHT22;2012;49.794;9.722;2022-11-20T01:36:16;3.10;99.90
3996;DHT22;2012;49.794;9.722;2022-11-20T01:38:43;3.20;99.90
3996;DHT22;2012;49.794;9.722;2022-11-20T01:41:11;3.10;99.90
3996;DHT22;2012;49.794;9.722;2022-11-20T01:43:59;3.20;99.90
3996;DHT22;2012;49.794;9.722;2022-11-20T01:46:26;3.20;99.90
3996;DHT22;2012;49.794;9.722;2022-11-20T01:51:40;3.20;99.90
3996;DHT22;2012;49.794;9.722;2022-11-20T01:54:17;3.20;99.90
3996;DHT22;2012;49.794;9.722;2022-11-20T01:56:46;3.10;99.90
3996;DHT22;2012;49.794;9.722;2022-11-20T01:59:16;3.20;99.90
3996;DHT22;2012;49.794;9.722;2022-11-20T02:01:45;3.10;99.90
3996;DHT22;2012;49.794;9.722;2022-11-20T02:04:13;3.10;99.90
3996;DHT22;2012;49.794;9.722;2022-11-20T02:06:54;3.20;99.90
3996;DHT22;2012;49.794;9.722;2022-11-20T02:09:22;3.20;99.90
3996;DHT22;2012;49.794;9.722;2022-11-20T02:11:49;3.20;99.90
3996;DHT22;2012;49.794;9.722;2022-11-20T02:14:16;3.10;99.90
3996;DHT22;2012;49.794;9.722;2022-11-20T02:16:47;3.10;99.90
3996;DHT22;2012;49.794;9.722;2022-11-20T02:19:31;3.00;99.90
3996;DHT22;2012;49.794;9.722;2022-11-20T02:22:11;3.00;99.90
3996;DHT22;2012;49.794;9.722;2022-11-20T02:24:41;3.00;99.90
3996;DHT22;2012;49.794;9.722;2022-11-20T02:27:12;2.90;99.90
3996;DHT22;2012;49.794;9.722;2022-11-20T02:32:24;3.00;99.90
3996;DHT22;2012;49.794;9.722;2022-11-20T02:34:52;3.00;99.90
3996;DHT22;2012;49.794;9.722;2022-11-20T02:37:19;3.00;99.90
3996;DHT22;2012;49.794;9.722;2022-11-20T02:39:49;3.00;99.90
3996;DHT22;2012;49.794;9.722;2022-11-20T02:42:17;3.10;99.90
3996;DHT22;2012;49.794;9.722;2022-11-20T02:44:43;3.00;99.90
3996;DHT22;2012;49.794;9.722;2022-11-20T02:47:10;3.00;99.90
3996;DHT22;2012;49.794;9.722;2022-11-20T02:49:37;3.10;99.90
3996;DHT22;2012;49.794;9.722;2022-11-20T02:52:04;3.00;99.90
3996;DHT22;2012;49.794;9.722;2022-11-20T02:54:31;3.00;99.90
3996;DHT22;2012;49.794;9.722;2022-11-20T02:56:57;3.00;99.90
3996;DHT22;2012;49.794;9.722;2022-11-20T02:59:24;3.00;99.90
3996;DHT22;2012;49.794;9.722;2022-11-20T03:01:51;2.90;99.90
3996;DHT22;2012;49.794;9.722;2022-11-20T03:04:17;2.90;99.90
3996;DHT22;2012;49.794;9.722;2022-11-20T03:06:44;2.90;99.90
3996;DHT22;2012;49.794;9.722;2022-11-20T03:09:11;2.90;99.90
3996;DHT22;2012;49.794;9.722;2022-11-20T03:11:38;2.90;99.90
3996;DHT22;2012;49.794;9.722;2022-11-20T03:14:05;2.90;99.90
3996;DHT22;2012;49.794;9.722;2022-11-20T03:16:32;2.90;99.90
3996;DHT22;2012;49.794;9.722;2022-11-20T03:18:59;3.00;99.90
3996;DHT22;2012;49.794;9.722;2022-11-20T03:21:26;2.90;99.90
3996;DHT22;2012;49.794;9.722;2022-11-20T03:23:53;2.90;99.90
3996;DHT22;2012;49.794;9.722;2022-11-20T03:26:23;2.90;99.90
3996;DHT22;2012;49.794;9.722;2022-11-20T03:28:52;2.90;99.90
3996;DHT22;2012;49.794;9.722;2022-11-20T03:31:23;2.90;99.90
3996;DHT22;2012;49.794;9.722;2022-11-20T03:33:51;2.90;99.90
3996;DHT22;2012;49.794;9.722;2022-11-20T03:36:19;2.90;99.90
3996;DHT22;2012;49.794;9.722;2022-11-20T03:38:47;2.90;99.90
3996;DHT22;2012;49.794;9.722;2022-11-20T03:41:18;3.00;99.90
3996;DHT22;2012;49.794;9.722;2022-11-20T03:43:56;2.90;99.90
3996;DHT22;2012;49.794;9.722;2022-11-20T03:46:23;2.90;99.90
3996;DHT22;2012;49.794;9.722;2022-11-20T03:48:51;2.90;99.90
3996;DHT22;2012;49.794;9.722;2022-11-20T03:51:23;2.90;99.90
3996;DHT22;2012;49.794;9.722;2022-11-20T03:53:52;2.90;99.90
3996;DHT22;2012;49.794;9.722;2022-11-20T03:56:24;2.90;99.90
3996;DHT22;2012;49.794;9.722;2022-11-20T03:58:51;2.90;99.90
3996;DHT22;2012;49.794;9.722;2022-11-20T04:01:27;2.90;99.90
3996;DHT22;2012;49.794;9.722;2022-11-20T04:03:55;2.90;99.90
3996;DHT22;2012;49.794;9.722;2022-11-20T04:06:26;2.90;99.90
3996;DHT22;2012;49.794;9.722;2022-11-20T04:08:57;2.90;99.90
3996;DHT22;2012;49.794;9.722;2022-11-20T04:11:26;2.80;99.90
3996;DHT22;2012;49.794;9.722;2022-11-20T04:13:55;2.80;99.90
3996;DHT22;2012;49.794;9.722;2022-11-20T04:16:24;2.80;99.90
3996;DHT22;2012;49.794;9.722;2022-11-20T04:18:58;2.90;99.90
3996;DHT22;2012;49.794;9.722;2022-11-20T04:21:26;2.90;99.90
3996;DHT22;2012;49.794;9.722;2022-11-20T04:23:53;2.90;99.90
3996;DHT22;2012;49.794;9.722;2022-11-20T04:26:23;2.90;99.90
3996;DHT22;2012;49.794;9.722;2022-11-20T04:28:50;2.90;99.90
3996;DHT22;2012;49.794;9.722;2022-11-20T04:31:19;2.90;99.90
3996;DHT22;2012;49.794;9.722;2022-11-20T04:33:46;2.90;99.90
3996;DHT22;2012;49.794;9.722;2022-11-20T04:36:16;2.90;99.90
3996;DHT22;2012;49.794;9.722;2022-11-20T04:38:43;2.90;99.90
3996;DHT22;2012;49.794;9.722;2022-11-20T04:41:15;2.80;99.90
3996;DHT22;2012;49.794;9.722;2022-11-20T04:43:46;2.80;99.90
3996;DHT22;2012;49.794;9.722;2022-11-20T04:46:15;2.80;99.90
3996;DHT22;2012;49.794;9.722;2022-11-20T04:48:42;2.90;99.90
3996;DHT22;2012;49.794;9.722;2022-11-20T04:51:10;2.90;99.90
3996;DHT22;2012;49.794;9.722;2022-11-20T04:53:36;2.90;99.90
3996;DHT22;2012;49.794;9.722;2022-11-20T04:56:08;2.90;99.90
3996;DHT22;2012;49.794;9.722;2022-11-20T04:58:35;2.90;99.90
3996;DHT22;2012;49.794;9.722;2022-11-20T05:01:11;2.90;99.90
3996;DHT22;2012;49.794;9.722;2022-11-20T05:03:39;2.90;99.90
3996;DHT22;2012;49.794;9.722;2022-11-20T05:06:09;2.90;99.90
3996;DHT22;2012;49.794;9.722;2022-11-20T05:08:36;3.00;99.90
3996;DHT22;2012;49.794;9.722;2022-11-20T05:11:08;2.90;99.90
3996;DHT22;2012;49.794;9.722;2022-11-20T05:13:35;2.90;99.90
3996;DHT22;2012;49.794;9.722;2022-11-20T05:16:08;2.90;99.90
3996;DHT22;2012;49.794;9.722;2022-11-20T05:18:36;2.90;99.90
3996;DHT22;2012;49.794;9.722;2022-11-20T05:21:03;2.90;99.90
3996;DHT22;2012;49.794;9.722;2022-11-20T05:23:31;2.90;99.90
3996;DHT22;2012;49.794;9.722;2022-11-20T05:25:59;2.90;99.90
3996;DHT22;2012;49.794;9.722;2022-11-20T05:28:28;2.80;99.90
3996;DHT22;2012;49.794;9.722;2022-11-20T05:30:55;2.90;99.90
3996;DHT22;2012;49.794;9.722;2022-11-20T05:33:22;2.90;99.90
3996;DHT22;2012;49.794;9.722;2022-11-20T05:35:49;2.90;99.90
3996;DHT22;2012;49.794;9.722;2022-11-20T05:38:15;2.90;99.90
3996;DHT22;2012;49.794;9.722;2022-11-20T05:40:42;2.90;99.90
3996;DHT22;2012;49.794;9.722;2022-11-20T05:43:09;2.90;99.90
3996;DHT22;2012;49.794;9.722;2022-11-20T05:45:36;2.90;99.90
3996;DHT22;2012;49.794;9.722;2022-11-20T05:48:03;3.00;99.90
3996;DHT22;2012;49.794;9.722;2022-11-20T05:50:30;3.00;99.90
3996;DHT22;2012;49.794;9.722;2022-11-20T05:53:00;3.00;99.90
3996;DHT22;2012;49.794;9.722;2022-11-20T05:55:27;3.00;99.90
3996;DHT22;2012;49.794;9.722;2022-11-20T05:57:54;2.90;99.90
3996;DHT22;2012;49.794;9.722;2022-11-20T06:00:22;2.90;99.90
3996;DHT22;2012;49.794;9.722;2022-11-20T06:02:48;2.90;99.90
3996;DHT22;2012;49.794;9.722;2022-11-20T06:05:15;3.00;99.90
3996;DHT22;2012;49.794;9.722;2022-11-20T06:07:42;2.70;99.90
3996;DHT22;2012;49.794;9.722;2022-11-20T06:10:10;2.80;99.90
3996;DHT22;2012;49.794;9.722;2022-11-20T06:12:37;2.90;99.90
3996;DHT22;2012;49.794;9.722;2022-11-20T06:15:05;3.00;99.90
3996;DHT22;2012;49.794;9.722;2022-11-20T06:17:32;2.90;99.90
3996;DHT22;2012;49.794;9.722;2022-11-20T06:19:58;2.90;99.90
3996;DHT22;2012;49.794;9.722;2022-11-20T06:22:25;2.90;99.90
3996;DHT22;2012;49.794;9.722;2022-11-20T06:24:52;3.00;99.90
3996;DHT22;2012;49.794;9.722;2022-11-20T06:27:18;2.90;99.90
3996;DHT22;2012;49.794;9.722;2022-11-20T06:29:45;2.90;99.90
3996;DHT22;2012;49.794;9.722;2022-11-20T06:32:12;2.90;99.90
3996;DHT22;2012;49.794;9.722;2022-11-20T06:34:38;2.90;99.90
3996;DHT22;2012;49.794;9.722;2022-11-20T06:37:05;2.90;99.90
3996;DHT22;2012;49.794;9.722;2022-11-20T06:39:32;2.90;99.90
3996;DHT22;2012;49.794;9.722;2022-11-20T06:41:58;3.00;99.90
3996;DHT22;2012;49.794;9.722;2022-11-20T06:44:25;3.00;99.90
3996;DHT22;2012;49.794;9.722;2022-11-20T06:46:52;3.00;99.90
3996;DHT22;2012;49.794;9.722;2022-11-20T06:49:19;3.00;99.90
3996;DHT22;2012;49.794;9.722;2022-11-20T06:51:46;3.00;99.90
3996;DHT22;2012;49.794;9.722;2022-11-20T06:54:13;3.00;99.90
3996;DHT22;2012;49.794;9.722;2022-11-20T06:56:40;3.00;99.90
3996;DHT22;2012;49.794;9.722;2022-11-20T06:59:07;3.00;99.90
3996;DHT22;2012;49.794;9.722;2022-11-20T07:01:34;3.10;99.90
3996;DHT22;2012;49.794;9.722;2022-11-20T07:04:01;3.00;99.90
3996;DHT22;2012;49.794;9.722;2022-11-20T07:06:29;3.00;99.90
3996;DHT22;2012;49.794;9.722;2022-11-20T07:08:56;3.00;99.90
3996;DHT22;2012;49.794;9.722;2022-11-20T07:11:23;3.00;99.90
3996;DHT22;2012;49.794;9.722;2022-11-20T07:13:50;3.10;99.90
3996;DHT22;2012;49.794;9.722;2022-11-20T07:16:17;3.00;99.90
3996;DHT22;2012;49.794;9.722;2022-11-20T07:18:44;3.00;99.90
3996;DHT22;2012;49.794;9.722;2022-11-20T07:21:16;3.00;99.90
3996;DHT22;2012;49.794;9.722;2022-11-20T07:23:43;3.10;99.90
3996;DHT22;2012;49.794;9.722;2022-11-20T07:26:10;3.10;99.90
3996;DHT22;2012;49.794;9.722;2022-11-20T07:28:38;3.10;99.90
3996;DHT22;2012;49.794;9.722;2022-11-20T07:31:05;3.10;99.90
3996;DHT22;2012;49.794;9.722;2022-11-20T07:33:33;3.10;99.90
3996;DHT22;2012;49.794;9.722;2022-11-20T07:36:00;3.10;99.90
3996;DHT22;2012;49.794;9.722;2022-11-20T07:38:27;3.10;99.90
3996;DHT22;2012;49.794;9.722;2022-11-20T07:40:55;3.10;99.90
3996;DHT22;2012;49.794;9.722;2022-11-20T07:43:23;3.10;99.90
3996;DHT22;2012;49.794;9.722;2022-11-20T07:45:50;3.00;99.90
3996;DHT22;2012;49.794;9.722;2022-11-20T07:48:17;3.00;99.90
3996;DHT22;2012;49.794;9.722;2022-11-20T07:50:43;3.00;99.90
3996;DHT22;2012;49.794;9.722;2022-11-20T07:53:10;3.10;99.90
3996;DHT22;2012;49.794;9.722;2022-11-20T07:55:39;3.00;99.90
3996;DHT22;2012;49.794;9.722;2022-11-20T07:58:06;3.10;99.90
3996;DHT22;2012;49.794;9.722;2022-11-20T08:00:32;3.10;99.90
3996;DHT22;2012;49.794;9.722;2022-11-20T08:03:03;3.10;99.90
3996;DHT22;2012;49.794;9.722;2022-11-20T08:05:30;3.20;99.90
3996;DHT22;2012;49.794;9.722;2022-11-20T08:07:57;3.20;99.90
3996;DHT22;2012;49.794;9.722;2022-11-20T08:10:23;3.10;99.90
3996;DHT22;2012;49.794;9.722;2022-11-20T08:12:52;3.10;99.90
3996;DHT22;2012;49.794;9.722;2022-11-20T08:15:38;3.20;99.90
3996;DHT22;2012;49.794;9.722;2022-11-20T08:18:12;3.20;99.90
3996;DHT22;2012;49.794;9.722;2022-11-20T08:20:57;3.20;99.90
3996;DHT22;2012;49.794;9.722;2022-11-20T08:23:24;3.20;99.90
3996;DHT22;2012;49.794;9.722;2022-11-20T08:25:51;3.30;99.90
3996;DHT22;2012;49.794;9.722;2022-11-20T08:28:18;3.20;99.90
3996;DHT22;2012;49.794;9.722;2022-11-20T08:30:48;3.30;99.90
3996;DHT22;2012;49.794;9.722;2022-11-20T08:33:15;3.30;99.90
3996;DHT22;2012;49.794;9.722;2022-11-20T08:35:43;3.30;99.90
3996;DHT22;2012;49.794;9.722;2022-11-20T08:38:10;3.30;99.90
3996;DHT22;2012;49.794;9.722;2022-11-20T08:40:37;3.40;99.90
3996;DHT22;2012;49.794;9.722;2022-11-20T08:43:03;3.30;99.90
3996;DHT22;2012;49.794;9.722;2022-11-20T08:45:31;3.40;99.90
3996;DHT22;2012;49.794;9.722;2022-11-20T08:48:01;3.30;99.90
3996;DHT22;2012;49.794;9.722;2022-11-20T08:50:28;3.30;99.90
3996;DHT22;2012;49.794;9.722;2022-11-20T08:53:05;3.00;99.90
3996;DHT22;2012;49.794;9.722;2022-11-20T08:55:32;3.20;99.90
3996;DHT22;2012;49.794;9.722;2022-11-20T08:58:05;3.30;99.90
3996;DHT22;2012;49.794;9.722;2022-11-20T09:00:33;3.20;99.90
3996;DHT22;2012;49.794;9.722;2022-11-20T09:03:00;3.10;99.90
3996;DHT22;2012;49.794;9.722;2022-11-20T09:05:28;3.30;99.90
3996;DHT22;2012;49.794;9.722;2022-11-20T09:07:58;3.30;99.90
3996;DHT22;2012;49.794;9.722;2022-11-20T09:10:26;3.30;99.90
3996;DHT22;2012;49.794;9.722;2022-11-20T09:12:54;3.40;99.90
3996;DHT22;2012;49.794;9.722;2022-11-20T09:15:22;3.50;99.90
3996;DHT22;2012;49.794;9.722;2022-11-20T09:18:02;3.40;99.90
3996;DHT22;2012;49.794;9.722;2022-11-20T09:20:31;3.30;99.90
3996;DHT22;2012;49.794;9.722;2022-11-20T09:22:57;3.50;99.90
3996;DHT22;2012;49.794;9.722;2022-11-20T09:25:24;3.50;99.90
3996;DHT22;2012;49.794;9.722;2022-11-20T09:27:58;3.50;99.90
3996;DHT22;2012;49.794;9.722;2022-11-20T09:30:25;3.50;99.90
3996;DHT22;2012;49.794;9.722;2022-11-20T09:32:52;3.50;99.90
3996;DHT22;2012;49.794;9.722;2022-11-20T09:35:19;3.60;99.90
3996;DHT22;2012;49.794;9.722;2022-11-20T09:37:46;3.50;99.90
3996;DHT22;2012;49.794;9.722;2022-11-20T09:40:25;3.50;99.90
3996;DHT22;2012;49.794;9.722;2022-11-20T09:43:15;3.50;99.90
3996;DHT22;2012;49.794;9.722;2022-11-20T09:46:09;3.30;99.90
3996;DHT22;2012;49.794;9.722;2022-11-20T09:49:03;3.30;99.90
3996;DHT22;2012;49.794;9.722;2022-11-20T09:54:23;3.30;99.90
3996;DHT22;2012;49.794;9.722;2022-11-20T09:57:05;3.50;99.90
3996;DHT22;2012;49.794;9.722;2022-11-20T09:59:40;3.50;99.90
3996;DHT22;2012;49.794;9.722;2022-11-20T10:05:24;3.60;99.90
3996;DHT22;2012;49.794;9.722;2022-11-20T10:08:19;5.10;99.90
3996;DHT22;2012;49.794;9.722;2022-11-20T10:13:25;4.50;99.90
3996;DHT22;2012;49.794;9.722;2022-11-20T10:16:31;4.40;99.90
3996;DHT22;2012;49.794;9.722;2022-11-20T10:30:41;5.10;99.90
3996;DHT22;2012;49.794;9.722;2022-11-20T10:33:29;5.20;99.90
3996;DHT22;2012;49.794;9.722;2022-11-20T10:36:31;4.60;99.90
3996;DHT22;2012;49.794;9.722;2022-11-20T10:39:22;4.30;99.90
3996;DHT22;2012;49.794;9.722;2022-11-20T10:41:52;4.30;99.90
3996;DHT22;2012;49.794;9.722;2022-11-20T10:44:25;4.10;99.90
3996;DHT22;2012;49.794;9.722;2022-11-20T10:47:18;4.60;99.90
3996;DHT22;2012;49.794;9.722;2022-11-20T10:49:53;4.40;99.90
3996;DHT22;2012;49.794;9.722;2022-11-20T10:55:15;4.30;99.90
3996;DHT22;2012;49.794;9.722;2022-11-20T10:58:28;4.10;99.90
3996;DHT22;2012;49.794;9.722;2022-11-20T11:00:35;4.10;99.90
3996;DHT22;2012;49.794;9.722;2022-11-20T11:03:02;4.30;99.90
3996;DHT22;2012;49.794;9.722;2022-11-20T11:05:37;4.30;99.90
3996;DHT22;2012;49.794;9.722;2022-11-20T11:08:12;4.10;99.90
3996;DHT22;2012;49.794;9.722;2022-11-20T11:10:59;4.10;99.90
3996;DHT22;2012;49.794;9.722;2022-11-20T11:13:29;4.20;99.90
3996;DHT22;2012;49.794;9.722;2022-11-20T11:15:57;4.20;99.90
3996;DHT22;2012;49.794;9.722;2022-11-20T11:18:32;4.30;99.90
3996;DHT22;2012;49.794;9.722;2022-11-20T11:21:01;4.20;99.90
3996;DHT22;2012;49.794;9.722;2022-11-20T11:23:42;4.00;99.90
3996;DHT22;2012;49.794;9.722;2022-11-20T11:26:20;4.00;99.90
3996;DHT22;2012;49.794;9.722;2022-11-20T11:31:33;3.90;99.90
3996;DHT22;2012;49.794;9.722;2022-11-20T11:34:08;4.00;99.90
3996;DHT22;2012;49.794;9.722;2022-11-20T11:36:37;4.10;99.90
3996;DHT22;2012;49.794;9.722;2022-11-20T11:39:08;4.00;99.90
3996;DHT22;2012;49.794;9.722;2022-11-20T11:41:37;4.00;99.90
3996;DHT22;2012;49.794;9.722;2022-11-20T11:44:24;4.00;99.90
3996;DHT22;2012;49.794;9.722;2022-11-20T11:47:26;4.20;99.90
3996;DHT22;2012;49.794;9.722;2022-11-20T11:52:51;4.00;99.90
3996;DHT22;2012;49.794;9.722;2022-11-20T11:55:54;3.90;99.90
3996;DHT22;2012;49.794;9.722;2022-11-20T11:58:39;4.00;99.90
3996;DHT22;2012;49.794;9.722;2022-11-20T12:06:50;3.90;99.90
3996;DHT22;2012;49.794;9.722;2022-11-20T12:09:19;3.80;99.90
3996;DHT22;2012;49.794;9.722;2022-11-20T12:11:52;3.90;99.90
3996;DHT22;2012;49.794;9.722;2022-11-20T12:14:36;3.90;99.90
3996;DHT22;2012;49.794;9.722;2022-11-20T12:17:04;4.10;99.90
3996;DHT22;2012;49.794;9.722;2022-11-20T12:19:34;4.20;99.90
3996;DHT22;2012;49.794;9.722;2022-11-20T12:22:37;4.20;99.90
3996;DHT22;2012;49.794;9.722;2022-11-20T12:30:18;4.20;99.90
3996;DHT22;2012;49.794;9.722;2022-11-20T12:38:23;4.10;99.90
3996;DHT22;2012;49.794;9.722;2022-11-20T12:41:15;4.10;99.90
3996;DHT22;2012;49.794;9.722;2022-11-20T12:48:02;4.30;99.90
3996;DHT22;2012;49.794;9.722;2022-11-20T12:50:56;4.20;99.90
3996;DHT22;2012;49.794;9.722;2022-11-20T12:56:35;4.40;99.90
3996;DHT22;2012;49.794;9.722;2022-11-20T13:07:06;4.50;99.90
3996;DHT22;2012;49.794;9.722;2022-11-20T13:09:42;4.60;99.90
3996;DHT22;2012;49.794;9.722;2022-11-20T13:12:33;4.60;99.90
3996;DHT22;2012;49.794;9.722;2022-11-20T13:15:18;4.50;99.90
3996;DHT22;2012;49.794;9.722;2022-11-20T13:17:58;4.50;99.90
3996;DHT22;2012;49.794;9.722;2022-11-20T13:20:26;4.50;99.90
3996;DHT22;2012;49.794;9.722;2022-11-20T13:22:54;4.50;99.90
3996;DHT22;2012;49.794;9.722;2022-11-20T13:25:28;4.50;99.90
3996;DHT22;2012;49.794;9.722;2022-11-20T13:27:57;4.60;99.90
3996;DHT22;2012;49.794;9.722;2022-11-20T13:30:26;4.80;99.90
3996;DHT22;2012;49.794;9.722;2022-11-20T13:32:56;4.90;99.90
3996;DHT22;2012;49.794;9.722;2022-11-20T13:35:29;5.00;99.90
3996;DHT22;2012;49.794;9.722;2022-11-20T13:38:14;4.80;99.90
3996;DHT22;2012;49.794;9.722;2022-11-20T13:46:01;4.90;99.90
3996;DHT22;2012;49.794;9.722;2022-11-20T13:48:39;4.80;99.90
3996;DHT22;2012;49.794;9.722;2022-11-20T14:02:16;5.00;99.90
3996;DHT22;2012;49.794;9.722;2022-11-20T14:04:47;4.90;99.90
3996;DHT22;2012;49.794;9.722;2022-11-20T14:07:17;4.90;99.90
3996;DHT22;2012;49.794;9.722;2022-11-20T14:09:56;4.80;99.90
3996;DHT22;2012;49.794;9.722;2022-11-20T14:12:29;4.80;99.90
3996;DHT22;2012;49.794;9.722;2022-11-20T14:14:56;5.00;99.90
3996;DHT22;2012;49.794;9.722;2022-11-20T14:17:31;4.90;99.90
3996;DHT22;2012;49.794;9.722;2022-11-20T14:20:04;5.00;99.90
3996;DHT22;2012;49.794;9.722;2022-11-20T14:22:31;4.90;99.90
3996;DHT22;2012;49.794;9.722;2022-11-20T14:27:41;5.10;99.90
3996;DHT22;2012;49.794;9.722;2022-11-20T14:30:16;5.10;99.90
3996;DHT22;2012;49.794;9.722;2022-11-20T14:32:45;5.20;99.90
3996;DHT22;2012;49.794;9.722;2022-11-20T14:35:45;5.20;99.90
3996;DHT22;2012;49.794;9.722;2022-11-20T14:38:14;5.20;99.90
3996;DHT22;2012;49.794;9.722;2022-11-20T14:40:41;5.20;99.90
3996;DHT22;2012;49.794;9.722;2022-11-20T14:43:24;5.20;99.90
3996;DHT22;2012;49.794;9.722;2022-11-20T14:46:07;5.20;99.90
3996;DHT22;2012;49.794;9.722;2022-11-20T14:48:48;5.30;99.90
3996;DHT22;2012;49.794;9.722;2022-11-20T14:51:38;5.20;99.90
3996;DHT22;2012;49.794;9.722;2022-11-20T14:54:18;5.30;99.90
3996;DHT22;2012;49.794;9.722;2022-11-20T14:57:02;5.30;99.90
3996;DHT22;2012;49.794;9.722;2022-11-20T14:59:33;5.30;99.90
3996;DHT22;2012;49.794;9.722;2022-11-20T15:04:29;5.30;99.90
3996;DHT22;2012;49.794;9.722;2022-11-20T15:06:58;5.30;99.90
3996;DHT22;2012;49.794;9.722;2022-11-20T15:09:25;5.30;99.90
3996;DHT22;2012;49.794;9.722;2022-11-20T15:11:57;5.30;99.90
3996;DHT22;2012;49.794;9.722;2022-11-20T15:14:25;5.30;99.90
3996;DHT22;2012;49.794;9.722;2022-11-20T15:16:53;5.30;99.90
3996;DHT22;2012;49.794;9.722;2022-11-20T15:19:25;5.30;99.90
3996;DHT22;2012;49.794;9.722;2022-11-20T15:21:52;5.30;99.90
3996;DHT22;2012;49.794;9.722;2022-11-20T15:24:20;5.30;99.90
3996;DHT22;2012;49.794;9.722;2022-11-20T15:26:47;5.30;99.90
3996;DHT22;2012;49.794;9.722;2022-11-20T15:29:15;5.30;99.90
3996;DHT22;2012;49.794;9.722;2022-11-20T15:31:45;5.30;99.90
3996;DHT22;2012;49.794;9.722;2022-11-20T15:34:13;5.30;99.90
3996;DHT22;2012;49.794;9.722;2022-11-20T15:36:41;5.40;99.90
3996;DHT22;2012;49.794;9.722;2022-11-20T15:39:09;5.30;99.90
3996;DHT22;2012;49.794;9.722;2022-11-20T15:41:36;5.20;99.90
3996;DHT22;2012;49.794;9.722;2022-11-20T15:44:04;5.30;99.90
3996;DHT22;2012;49.794;9.722;2022-11-20T15:46:32;5.20;99.90
3996;DHT22;2012;49.794;9.722;2022-11-20T15:49:04;5.10;99.90
3996;DHT22;2012;49.794;9.722;2022-11-20T15:51:34;5.20;99.90
3996;DHT22;2012;49.794;9.722;2022-11-20T15:54:13;5.20;99.90
3996;DHT22;2012;49.794;9.722;2022-11-20T15:56:40;5.20;99.90
3996;DHT22;2012;49.794;9.722;2022-11-20T15:59:07;5.20;99.90
3996;DHT22;2012;49.794;9.722;2022-11-20T16:01:34;5.20;99.90
3996;DHT22;2012;49.794;9.722;2022-11-20T16:04:01;5.20;99.90
3996;DHT22;2012;49.794;9.722;2022-11-20T16:06:28;5.20;99.90
3996;DHT22;2012;49.794;9.722;2022-11-20T16:08:55;5.10;99.90
3996;DHT22;2012;49.794;9.722;2022-11-20T16:11:21;5.10;99.90
3996;DHT22;2012;49.794;9.722;2022-11-20T16:13:48;5.10;99.90
3996;DHT22;2012;49.794;9.722;2022-11-20T16:16:36;5.00;99.90
3996;DHT22;2012;49.794;9.722;2022-11-20T16:19:03;5.10;99.90
3996;DHT22;2012;49.794;9.722;2022-11-20T16:21:30;5.00;99.90
3996;DHT22;2012;49.794;9.722;2022-11-20T16:24:03;5.10;99.90
3996;DHT22;2012;49.794;9.722;2022-11-20T16:26:31;5.10;99.90
3996;DHT22;2012;49.794;9.722;2022-11-20T16:28:59;5.00;99.90
3996;DHT22;2012;49.794;9.722;2022-11-20T16:31:26;5.10;99.90
3996;DHT22;2012;49.794;9.722;2022-11-20T16:33:56;5.00;99.90
3996;DHT22;2012;49.794;9.722;2022-11-20T16:36:25;5.00;99.90
3996;DHT22;2012;49.794;9.722;2022-11-20T16:38:53;5.00;99.90
3996;DHT22;2012;49.794;9.722;2022-11-20T16:41:22;5.00;99.90
3996;DHT22;2012;49.794;9.722;2022-11-20T16:43:56;4.90;99.90
3996;DHT22;2012;49.794;9.722;2022-11-20T16:46:26;4.90;99.90
3996;DHT22;2012;49.794;9.722;2022-11-20T16:49:00;4.80;99.90
3996;DHT22;2012;49.794;9.722;2022-11-20T16:51:29;4.60;99.90
3996;DHT22;2012;49.794;9.722;2022-11-20T16:53:56;4.70;99.90
3996;DHT22;2012;49.794;9.722;2022-11-20T16:56:25;4.70;99.90
3996;DHT22;2012;49.794;9.722;2022-11-20T16:58:54;4.70;99.90
3996;DHT22;2012;49.794;9.722;2022-11-20T17:01:23;4.60;99.90
3996;DHT22;2012;49.794;9.722;2022-11-20T17:04:04;4.80;99.90
3996;DHT22;2012;49.794;9.722;2022-11-20T17:06:36;4.80;99.90
3996;DHT22;2012;49.794;9.722;2022-11-20T17:09:04;4.80;99.90
3996;DHT22;2012;49.794;9.722;2022-11-20T17:11:59;4.80;99.90
3996;DHT22;2012;49.794;9.722;2022-11-20T17:14:26;4.70;99.90
3996;DHT22;2012;49.794;9.722;2022-11-20T17:16:53;4.70;99.90
3996;DHT22;2012;49.794;9.722;2022-11-20T17:19:19;4.80;99.90
3996;DHT22;2012;49.794;9.722;2022-11-20T17:21:46;4.80;99.90
3996;DHT22;2012;49.794;9.722;2022-11-20T17:24:13;4.70;99.90
3996;DHT22;2012;49.794;9.722;2022-11-20T17:26:42;4.70;99.90
3996;DHT22;2012;49.794;9.722;2022-11-20T17:29:12;4.60;99.90
3996;DHT22;2012;49.794;9.722;2022-11-20T17:31:40;4.70;99.90
3996;DHT22;2012;49.794;9.722;2022-11-20T17:34:10;4.80;99.90
3996;DHT22;2012;49.794;9.722;2022-11-20T17:36:37;4.80;99.90
3996;DHT22;2012;49.794;9.722;2022-11-20T17:39:13;4.70;99.90
3996;DHT22;2012;49.794;9.722;2022-11-20T17:41:40;4.60;99.90
3996;DHT22;2012;49.794;9.722;2022-11-20T17:44:09;4.60;99.90
3996;DHT22;2012;49.794;9.722;2022-11-20T17:46:36;4.70;99.90
3996;DHT22;2012;49.794;9.722;2022-11-20T17:49:03;4.70;99.90
3996;DHT22;2012;49.794;9.722;2022-11-20T17:51:32;4.70;99.90
3996;DHT22;2012;49.794;9.722;2022-11-20T17:54:03;4.70;99.90
3996;DHT22;2012;49.794;9.722;2022-11-20T17:56:31;4.70;99.90
3996;DHT22;2012;49.794;9.722;2022-11-20T17:59:17;4.70;99.90
3996;DHT22;2012;49.794;9.722;2022-11-20T18:01:44;4.70;99.90
3996;DHT22;2012;49.794;9.722;2022-11-20T18:04:12;4.60;99.90
3996;DHT22;2012;49.794;9.722;2022-11-20T18:06:39;4.60;99.90
3996;DHT22;2012;49.794;9.722;2022-11-20T18:09:06;4.70;99.90